Airfield :
LOGIN :

Register | Disclaimer

   EN    FR    IT 

 










Legend :    VFR   Marginal VFR   IFR   Intensive IFR   Very Intensive IFR
Visi :
Ceiling :
>= 8 km
>= 3000ft
5 to 8 km
1000 to 3000 ft
1500m to 5 km
500 to 1000 ft
800 to 1500m
200 to 500 ft
< 800m
< 200 ft
Symbols :   Thunderstorms  Fog  Heavy snow  Heavy precipitations  Wind > 20 kt
SIGMETs :     Misc.  Thunderstorms  Icing  Turbulence  Mountain Waves  Volcanic Ashes






- Airport Elevation : 512 ft
- IATA code : URO


LFOP - Rouen Vallée de Seine

CURRENT METAR :
  • 210630Z AUTO 05005KT 3900 BR NSC M02/M02 Q1041 TEMPO 0700 FG VV///

EXPIRED METARs :
  • 210600Z AUTO 03004KT 5000 BR FEW006 M01/M01 Q1041 TEMPO 0700 FG VV///
  • 210530Z AUTO 07003KT 040V110 5000 BR BKN006 M01/M02 Q1041
  • 210500Z AUTO 00000KT 5000 BR OVC006 M00/M01 Q1041
  • 210430Z AUTO VRB02KT 5000 BR OVC007 01/00 Q1041
  • 210400Z AUTO 04004KT 6000 BKN007 00/M00 Q1041
  • 210330Z AUTO 07006KT 040V100 7000 BKN008 01/00 Q1041

TAF TAF LFOP
Valid from the 21 at 06:00 until the 22 at 06:00 UTC


210500Z 2106/2206 04007KT 3000 BR OVC007
TEMPO 2106/2109 0700 FG VV///
BECMG 2110/2112 CAVOK
BECMG 2202/2205 0500 FZFG VV///
ATIS : +33 2 35 80 80 34
Met : +33 2 32 86 52 80



MET'MAP, your aeronautical weather chart ! - Copyright ORBIFLY December 2007 - Disclaimer

ORBIFLY MET'MAP TEAM :

Programming & Development : Alexandra Zaïnal
Concept & original design : Baudouin d'Aumeries
Assistance for programming : Marc-Olivier Méhu
Technical & hardware support : Manuel Goepfert

Contact : metmap@orbifly.com




SOURCES & CREDITS :

   NOAA